sensor_id;sensor_type;location;lat;lon;timestamp;pressure;altitude;pressure_sealevel;temperature;humidity
20971;BME280;10644;48.834;10.088;2022-10-30T00:00:55;97097.56;;;20.24;55.66
20971;BME280;10644;48.834;10.088;2022-10-30T00:03:24;97090.56;;;20.24;55.44
20971;BME280;10644;48.834;10.088;2022-10-30T00:05:57;97093.03;;;20.26;55.03
20971;BME280;10644;48.834;10.088;2022-10-30T00:08:33;97095.66;;;20.26;54.88
20971;BME280;10644;48.834;10.088;2022-10-30T00:11:11;97099.09;;;20.26;54.87
20971;BME280;10644;48.834;10.088;2022-10-30T00:13:42;97089.88;;;20.22;55.07
20971;BME280;10644;48.834;10.088;2022-10-30T00:16:21;97097.81;;;20.21;55.06
20971;BME280;10644;48.834;10.088;2022-10-30T00:18:50;97099.47;;;20.22;55.06
20971;BME280;10644;48.834;10.088;2022-10-30T00:21:17;97103.31;;;20.18;55.09
20971;BME280;10644;48.834;10.088;2022-10-30T00:24:00;97109.31;;;20.18;54.31
20971;BME280;10644;48.834;10.088;2022-10-30T00:26:39;97101.91;;;20.14;54.74
20971;BME280;10644;48.834;10.088;2022-10-30T00:29:11;97104.38;;;20.15;54.73
20971;BME280;10644;48.834;10.088;2022-10-30T00:31:38;97103.16;;;19.99;55.07
20971;BME280;10644;48.834;10.088;2022-10-30T00:34:03;97094.69;;;19.97;54.82
20971;BME280;10644;48.834;10.088;2022-10-30T00:39:19;97106.47;;;20.01;55.24
20971;BME280;10644;48.834;10.088;2022-10-30T00:41:55;97097.72;;;20.02;55.16
20971;BME280;10644;48.834;10.088;2022-10-30T00:47:31;97100.31;;;20.02;54.66
20971;BME280;10644;48.834;10.088;2022-10-30T00:53:26;97087.78;;;19.86;55.00
20971;BME280;10644;48.834;10.088;2022-10-30T00:55:57;97087.63;;;19.88;54.71
20971;BME280;10644;48.834;10.088;2022-10-30T00:58:32;97081.63;;;19.87;54.84
20971;BME280;10644;48.834;10.088;2022-10-30T01:01:11;97078.19;;;19.87;54.71
20971;BME280;10644;48.834;10.088;2022-10-30T01:03:55;97071.03;;;19.79;54.33
20971;BME280;10644;48.834;10.088;2022-10-30T01:06:24;97077.28;;;19.67;54.72
20971;BME280;10644;48.834;10.088;2022-10-30T01:09:15;97078.34;;;19.65;54.85
20971;BME280;10644;48.834;10.088;2022-10-30T01:11:51;97064.09;;;19.59;55.12
20971;BME280;10644;48.834;10.088;2022-10-30T01:14:36;97072.03;;;19.58;54.57
20971;BME280;10644;48.834;10.088;2022-10-30T01:32:17;97071.84;;;19.29;55.02
20971;BME280;10644;48.834;10.088;2022-10-30T01:34:55;97069.09;;;19.31;54.89
20971;BME280;10644;48.834;10.088;2022-10-30T01:38:14;97074.31;;;19.31;54.74
20971;BME280;10644;48.834;10.088;2022-10-30T01:40:45;97076.09;;;19.30;54.84
20971;BME280;10644;48.834;10.088;2022-10-30T01:43:15;97065.25;;;19.25;54.91
20971;BME280;10644;48.834;10.088;2022-10-30T01:45:58;97071.84;;;19.29;54.69
20971;BME280;10644;48.834;10.088;2022-10-30T02:06:36;97063.28;;;18.86;54.60
20971;BME280;10644;48.834;10.088;2022-10-30T02:09:10;97068.38;;;18.77;54.83
20971;BME280;10644;48.834;10.088;2022-10-30T02:11:36;97061.56;;;18.76;55.21
20971;BME280;10644;48.834;10.088;2022-10-30T02:17:14;97070.97;;;18.77;54.72
20971;BME280;10644;48.834;10.088;2022-10-30T02:19:42;97061.78;;;18.73;54.87
20971;BME280;10644;48.834;10.088;2022-10-30T02:22:07;97067.47;;;18.67;55.06
20971;BME280;10644;48.834;10.088;2022-10-30T02:24:42;97064.88;;;18.67;54.93
20971;BME280;10644;48.834;10.088;2022-10-30T02:27:21;97052.28;;;18.62;54.84
20971;BME280;10644;48.834;10.088;2022-10-30T02:29:59;97059.00;;;18.65;54.83
20971;BME280;10644;48.834;10.088;2022-10-30T02:32:45;97059.41;;;18.70;54.78
20971;BME280;10644;48.834;10.088;2022-10-30T02:35:20;97061.94;;;18.60;54.61
20971;BME280;10644;48.834;10.088;2022-10-30T02:37:55;97060.19;;;18.50;54.66
20971;BME280;10644;48.834;10.088;2022-10-30T02:40:25;97061.84;;;18.29;55.18
20971;BME280;10644;48.834;10.088;2022-10-30T02:43:03;97064.56;;;18.16;55.52
20971;BME280;10644;48.834;10.088;2022-10-30T02:45:34;97058.47;;;18.17;55.70
20971;BME280;10644;48.834;10.088;2022-10-30T02:48:19;97058.56;;;18.27;55.54
20971;BME280;10644;48.834;10.088;2022-10-30T02:50:58;97053.25;;;18.28;55.48
20971;BME280;10644;48.834;10.088;2022-10-30T02:53:24;97054.19;;;18.27;55.73
20971;BME280;10644;48.834;10.088;2022-10-30T02:56:07;97051.28;;;18.32;55.17
20971;BME280;10644;48.834;10.088;2022-10-30T02:58:36;97049.81;;;18.28;55.33
20971;BME280;10644;48.834;10.088;2022-10-30T03:01:14;97049.25;;;18.24;55.10
20971;BME280;10644;48.834;10.088;2022-10-30T03:03:44;97062.09;;;18.26;55.58
20971;BME280;10644;48.834;10.088;2022-10-30T03:06:15;97053.13;;;18.30;55.10
20971;BME280;10644;48.834;10.088;2022-10-30T03:08:48;97051.47;;;18.29;55.08
20971;BME280;10644;48.834;10.088;2022-10-30T03:11:33;97053.84;;;18.21;55.22
20971;BME280;10644;48.834;10.088;2022-10-30T03:14:04;97055.03;;;18.17;54.94
20971;BME280;10644;48.834;10.088;2022-10-30T03:16:40;97054.34;;;18.15;55.38
20971;BME280;10644;48.834;10.088;2022-10-30T03:19:08;97055.97;;;18.16;55.28
20971;BME280;10644;48.834;10.088;2022-10-30T03:21:34;97053.38;;;18.16;55.08
20971;BME280;10644;48.834;10.088;2022-10-30T03:24:19;97055.72;;;18.19;54.70
20971;BME280;10644;48.834;10.088;2022-10-30T03:26:59;97053.03;;;18.09;54.77
20971;BME280;10644;48.834;10.088;2022-10-30T03:29:30;97041.38;;;18.04;54.87
20971;BME280;10644;48.834;10.088;2022-10-30T03:31:56;97036.19;;;17.93;55.11
20971;BME280;10644;48.834;10.088;2022-10-30T03:34:23;97038.78;;;17.93;55.28
20971;BME280;10644;48.834;10.088;2022-10-30T03:37:11;97039.97;;;18.00;55.22
20971;BME280;10644;48.834;10.088;2022-10-30T03:39:36;97035.00;;;17.97;55.32
20971;BME280;10644;48.834;10.088;2022-10-30T03:42:01;97033.34;;;17.85;55.11
20971;BME280;10644;48.834;10.088;2022-10-30T03:44:49;97032.06;;;17.79;55.25
20971;BME280;10644;48.834;10.088;2022-10-30T03:47:28;97033.13;;;17.77;55.13
20971;BME280;10644;48.834;10.088;2022-10-30T03:50:02;97025.34;;;17.77;55.56
20971;BME280;10644;48.834;10.088;2022-10-30T03:52:30;97021.13;;;17.76;55.55
20971;BME280;10644;48.834;10.088;2022-10-30T03:55:03;97022.50;;;17.80;55.21
20971;BME280;10644;48.834;10.088;2022-10-30T03:57:47;97036.91;;;17.73;55.34
20971;BME280;10644;48.834;10.088;2022-10-30T04:00:26;97033.50;;;17.61;55.34
20971;BME280;10644;48.834;10.088;2022-10-30T04:02:56;97038.53;;;17.63;55.70
20971;BME280;10644;48.834;10.088;2022-10-30T04:05:27;97039.16;;;17.66;55.44
20971;BME280;10644;48.834;10.088;2022-10-30T04:08:08;97043.50;;;17.66;55.28
20971;BME280;10644;48.834;10.088;2022-10-30T04:10:43;97035.34;;;17.59;55.84
20971;BME280;10644;48.834;10.088;2022-10-30T04:13:16;97042.44;;;17.57;55.50
20971;BME280;10644;48.834;10.088;2022-10-30T04:15:48;97037.72;;;17.51;55.61
20971;BME280;10644;48.834;10.088;2022-10-30T04:18:24;97046.75;;;17.46;55.83
20971;BME280;10644;48.834;10.088;2022-10-30T04:20:49;97048.53;;;17.45;55.81
20971;BME280;10644;48.834;10.088;2022-10-30T04:23:21;97042.97;;;17.39;55.63
20971;BME280;10644;48.834;10.088;2022-10-30T04:26:02;97056.13;;;17.25;55.67
20971;BME280;10644;48.834;10.088;2022-10-30T04:28:29;97054.88;;;17.07;56.07
20971;BME280;10644;48.834;10.088;2022-10-30T04:31:02;97064.00;;;16.89;56.77
20971;BME280;10644;48.834;10.088;2022-10-30T04:33:27;97061.88;;;16.94;56.90
20971;BME280;10644;48.834;10.088;2022-10-30T04:35:58;97063.31;;;16.98;56.81
20971;BME280;10644;48.834;10.088;2022-10-30T04:38:31;97064.53;;;17.05;56.80
20971;BME280;10644;48.834;10.088;2022-10-30T04:41:07;97064.06;;;17.11;57.03
20971;BME280;10644;48.834;10.088;2022-10-30T04:43:47;97061.03;;;17.17;56.88
20971;BME280;10644;48.834;10.088;2022-10-30T04:46:23;97066.69;;;17.22;56.81
20971;BME280;10644;48.834;10.088;2022-10-30T04:49:00;97054.69;;;17.21;57.12
20971;BME280;10644;48.834;10.088;2022-10-30T04:51:25;97051.41;;;17.19;57.92
20971;BME280;10644;48.834;10.088;2022-10-30T04:53:51;97057.16;;;16.88;58.87
20971;BME280;10644;48.834;10.088;2022-10-30T04:56:24;97054.22;;;16.92;58.39
20971;BME280;10644;48.834;10.088;2022-10-30T04:58:55;97051.44;;;16.72;58.90
20971;BME280;10644;48.834;10.088;2022-10-30T05:01:28;97044.03;;;16.67;58.97
20971;BME280;10644;48.834;10.088;2022-10-30T05:03:53;97041.94;;;16.72;59.27
20971;BME280;10644;48.834;10.088;2022-10-30T05:06:22;97042.31;;;16.79;59.07
20971;BME280;10644;48.834;10.088;2022-10-30T05:09:02;97043.06;;;16.92;58.37
20971;BME280;10644;48.834;10.088;2022-10-30T05:11:36;97033.78;;;16.89;58.58
20971;BME280;10644;48.834;10.088;2022-10-30T05:14:03;97043.13;;;16.79;59.36
20971;BME280;10644;48.834;10.088;2022-10-30T05:16:28;97042.97;;;16.70;59.63
20971;BME280;10644;48.834;10.088;2022-10-30T05:18:54;97042.31;;;16.79;59.19
20971;BME280;10644;48.834;10.088;2022-10-30T05:21:33;97063.38;;;16.85;58.34
20971;BME280;10644;48.834;10.088;2022-10-30T05:24:13;97060.66;;;16.76;58.07
20971;BME280;10644;48.834;10.088;2022-10-30T05:26:39;97053.78;;;16.64;59.00
20971;BME280;10644;48.834;10.088;2022-10-30T05:29:08;97048.16;;;16.70;58.85
20971;BME280;10644;48.834;10.088;2022-10-30T05:31:38;97047.72;;;16.76;58.38
20971;BME280;10644;48.834;10.088;2022-10-30T05:34:23;97062.34;;;16.88;58.05
20971;BME280;10644;48.834;10.088;2022-10-30T05:36:52;97056.97;;;16.91;58.53
20971;BME280;10644;48.834;10.088;2022-10-30T05:39:37;97065.56;;;17.02;58.26
20971;BME280;10644;48.834;10.088;2022-10-30T05:42:24;97066.66;;;17.11;58.16
20971;BME280;10644;48.834;10.088;2022-10-30T05:45:15;97061.75;;;17.19;57.87
20971;BME280;10644;48.834;10.088;2022-10-30T05:48:03;97062.91;;;17.15;57.69
20971;BME280;10644;48.834;10.088;2022-10-30T05:50:32;97058.88;;;17.11;58.00
20971;BME280;10644;48.834;10.088;2022-10-30T05:53:10;97067.22;;;17.03;57.84
20971;BME280;10644;48.834;10.088;2022-10-30T05:55:55;97064.28;;;16.97;58.05
20971;BME280;10644;48.834;10.088;2022-10-30T05:58:33;97059.19;;;16.95;58.14
20971;BME280;10644;48.834;10.088;2022-10-30T06:00:58;97050.25;;;16.88;59.01
20971;BME280;10644;48.834;10.088;2022-10-30T06:03:43;97062.34;;;16.88;58.75
20971;BME280;10644;48.834;10.088;2022-10-30T06:06:11;97054.88;;;16.72;59.89
20971;BME280;10644;48.834;10.088;2022-10-30T06:08:37;97061.78;;;16.72;60.25
20971;BME280;10644;48.834;10.088;2022-10-30T06:11:02;97050.19;;;16.77;59.89
20971;BME280;10644;48.834;10.088;2022-10-30T06:13:28;97061.78;;;16.72;59.92
20971;BME280;10644;48.834;10.088;2022-10-30T06:16:17;97061.59;;;16.75;59.58
20971;BME280;10644;48.834;10.088;2022-10-30T06:19:03;97064.22;;;16.86;59.52
20971;BME280;10644;48.834;10.088;2022-10-30T06:21:41;97061.88;;;16.94;58.96
20971;BME280;10644;48.834;10.088;2022-10-30T06:24:20;97057.31;;;16.97;58.32
20971;BME280;10644;48.834;10.088;2022-10-30T06:26:54;97055.72;;;16.84;58.43
20971;BME280;10644;48.834;10.088;2022-10-30T06:29:21;97058.44;;;16.82;58.79
20971;BME280;10644;48.834;10.088;2022-10-30T06:31:55;97063.19;;;16.88;58.39
20971;BME280;10644;48.834;10.088;2022-10-30T06:34:22;97062.13;;;16.91;58.35
20971;BME280;10644;48.834;10.088;2022-10-30T06:36:53;97069.09;;;17.01;58.37
20971;BME280;10644;48.834;10.088;2022-10-30T06:39:36;97069.25;;;17.11;57.91
20971;BME280;10644;48.834;10.088;2022-10-30T06:45:14;97065.25;;;17.18;57.76
20971;BME280;10644;48.834;10.088;2022-10-30T06:47:41;97073.69;;;16.98;58.19
20971;BME280;10644;48.834;10.088;2022-10-30T06:50:19;97065.31;;;16.94;58.16
20971;BME280;10644;48.834;10.088;2022-10-30T06:52:45;97062.88;;;17.04;58.11
20971;BME280;10644;48.834;10.088;2022-10-30T06:55:13;97064.31;;;17.08;58.28
20971;BME280;10644;48.834;10.088;2022-10-30T06:58:01;97071.94;;;17.09;57.58
20971;BME280;10644;48.834;10.088;2022-10-30T07:00:27;97084.19;;;17.07;57.82
20971;BME280;10644;48.834;10.088;2022-10-30T07:03:02;97076.53;;;17.06;57.68
20971;BME280;10644;48.834;10.088;2022-10-30T07:05:39;97083.63;;;17.15;57.82
20971;BME280;10644;48.834;10.088;2022-10-30T07:08:14;97085.38;;;17.14;57.82
20971;BME280;10644;48.834;10.088;2022-10-30T07:10:40;97089.50;;;17.17;57.73
20971;BME280;10644;48.834;10.088;2022-10-30T07:13:06;97088.25;;;17.22;57.98
20971;BME280;10644;48.834;10.088;2022-10-30T07:15:40;97080.13;;;17.27;57.79
20971;BME280;10644;48.834;10.088;2022-10-30T07:18:17;97083.69;;;17.37;57.62
20971;BME280;10644;48.834;10.088;2022-10-30T07:20:53;97084.81;;;17.45;57.79
20971;BME280;10644;48.834;10.088;2022-10-30T07:23:41;97085.31;;;17.27;58.51
20971;BME280;10644;48.834;10.088;2022-10-30T07:26:19;97081.28;;;17.23;58.56
20971;BME280;10644;48.834;10.088;2022-10-30T07:29:03;97080.13;;;17.27;58.56
20971;BME280;10644;48.834;10.088;2022-10-30T07:31:30;97080.63;;;17.32;59.08
20971;BME280;10644;48.834;10.088;2022-10-30T07:34:00;97089.16;;;17.45;58.83
20971;BME280;10644;48.834;10.088;2022-10-30T07:36:31;97085.16;;;17.52;58.92
20971;BME280;10644;48.834;10.088;2022-10-30T07:39:07;97079.88;;;17.64;59.01
20971;BME280;10644;48.834;10.088;2022-10-30T07:41:40;97074.59;;;17.77;58.78
20971;BME280;10644;48.834;10.088;2022-10-30T07:44:07;97076.63;;;17.84;58.66
20971;BME280;10644;48.834;10.088;2022-10-30T07:46:41;97084.16;;;17.98;58.34
20971;BME280;10644;48.834;10.088;2022-10-30T07:49:31;97085.94;;;18.09;57.86
20971;BME280;10644;48.834;10.088;2022-10-30T07:51:56;97073.88;;;18.08;58.22
20971;BME280;10644;48.834;10.088;2022-10-30T07:54:21;97082.03;;;18.14;58.32
20971;BME280;10644;48.834;10.088;2022-10-30T07:56:51;97072.69;;;18.23;58.19
20971;BME280;10644;48.834;10.088;2022-10-30T08:02:21;97086.16;;;18.50;57.91
20971;BME280;10644;48.834;10.088;2022-10-30T08:04:52;97076.91;;;18.57;57.79
20971;BME280;10644;48.834;10.088;2022-10-30T08:07:17;97092.94;;;18.73;57.69
20971;BME280;10644;48.834;10.088;2022-10-30T08:09:46;97078.28;;;18.83;57.62
20971;BME280;10644;48.834;10.088;2022-10-30T08:12:21;97089.31;;;18.96;57.52
20971;BME280;10644;48.834;10.088;2022-10-30T08:14:46;97081.25;;;19.10;57.17
20971;BME280;10644;48.834;10.088;2022-10-30T08:17:15;97085.47;;;19.22;57.12
20971;BME280;10644;48.834;10.088;2022-10-30T08:19:55;97091.41;;;19.33;57.06
20971;BME280;10644;48.834;10.088;2022-10-30T08:22:22;97083.44;;;19.46;56.96
20971;BME280;10644;48.834;10.088;2022-10-30T08:24:56;97086.81;;;19.57;56.87
20971;BME280;10644;48.834;10.088;2022-10-30T08:27:37;97077.44;;;19.66;56.12
20971;BME280;10644;48.834;10.088;2022-10-30T08:30:22;97080.34;;;19.82;56.21
20971;BME280;10644;48.834;10.088;2022-10-30T08:32:51;97069.19;;;19.91;55.71
20971;BME280;10644;48.834;10.088;2022-10-30T08:35:25;97073.34;;;20.03;55.81
20971;BME280;10644;48.834;10.088;2022-10-30T08:38:26;97073.72;;;20.19;55.87
20971;BME280;10644;48.834;10.088;2022-10-30T08:41:00;97075.81;;;20.34;55.13
20971;BME280;10644;48.834;10.088;2022-10-30T08:43:35;97059.84;;;20.48;54.76
20971;BME280;10644;48.834;10.088;2022-10-30T08:46:11;97068.31;;;20.50;54.10
20971;BME280;10644;48.834;10.088;2022-10-30T08:48:37;97056.84;;;20.72;53.73
20971;BME280;10644;48.834;10.088;2022-10-30T08:51:12;97069.09;;;21.00;53.63
20971;BME280;10644;48.834;10.088;2022-10-30T08:53:48;97056.22;;;21.17;53.26
20971;BME280;10644;48.834;10.088;2022-10-30T08:56:14;97052.06;;;21.34;52.85
20971;BME280;10644;48.834;10.088;2022-10-30T08:58:42;97055.91;;;21.49;52.18
20971;BME280;10644;48.834;10.088;2022-10-30T09:01:18;97054.34;;;21.65;52.51
20971;BME280;10644;48.834;10.088;2022-10-30T09:03:49;97055.44;;;21.82;51.97
20971;BME280;10644;48.834;10.088;2022-10-30T09:06:14;97051.69;;;21.94;51.28
20971;BME280;10644;48.834;10.088;2022-10-30T09:08:44;97046.00;;;22.08;51.17
20971;BME280;10644;48.834;10.088;2022-10-30T09:11:13;97051.78;;;22.29;50.85
20971;BME280;10644;48.834;10.088;2022-10-30T09:13:43;97047.47;;;22.47;50.51
20971;BME280;10644;48.834;10.088;2022-10-30T09:16:22;97054.50;;;22.64;50.87
20971;BME280;10644;48.834;10.088;2022-10-30T09:19:02;97054.16;;;22.76;49.49
20971;BME280;10644;48.834;10.088;2022-10-30T09:21:28;97055.06;;;22.85;49.74
20971;BME280;10644;48.834;10.088;2022-10-30T09:24:17;97049.31;;;22.99;51.23
20971;BME280;10644;48.834;10.088;2022-10-30T09:26:47;97045.59;;;23.19;50.34
20971;BME280;10644;48.834;10.088;2022-10-30T09:29:26;97056.03;;;23.19;50.06
20971;BME280;10644;48.834;10.088;2022-10-30T09:32:05;97051.78;;;23.35;50.08
20971;BME280;10644;48.834;10.088;2022-10-30T09:34:34;97049.19;;;23.61;49.48
20971;BME280;10644;48.834;10.088;2022-10-30T09:37:01;97052.22;;;23.74;49.09
20971;BME280;10644;48.834;10.088;2022-10-30T09:39:56;97048.69;;;23.83;48.94
20971;BME280;10644;48.834;10.088;2022-10-30T09:42:43;97047.50;;;24.03;49.47
20971;BME280;10644;48.834;10.088;2022-10-30T09:51:39;97042.34;;;24.68;48.84
20971;BME280;10644;48.834;10.088;2022-10-30T09:57:11;97042.91;;;24.96;47.23
20971;BME280;10644;48.834;10.088;2022-10-30T10:00:07;97038.19;;;25.15;47.17
20971;BME280;10644;48.834;10.088;2022-10-30T10:05:41;97042.63;;;25.63;46.90
20971;BME280;10644;48.834;10.088;2022-10-30T10:11:34;97036.25;;;26.20;44.82
20971;BME280;10644;48.834;10.088;2022-10-30T10:14:33;97038.06;;;26.50;45.44
20971;BME280;10644;48.834;10.088;2022-10-30T10:17:34;97034.06;;;26.70;43.51
20971;BME280;10644;48.834;10.088;2022-10-30T10:20:42;97030.44;;;26.93;42.50
20971;BME280;10644;48.834;10.088;2022-10-30T10:23:17;97029.50;;;27.17;41.57
20971;BME280;10644;48.834;10.088;2022-10-30T10:25:51;97025.66;;;27.42;41.05
20971;BME280;10644;48.834;10.088;2022-10-30T10:37:13;97023.00;;;28.37;39.42
20971;BME280;10644;48.834;10.088;2022-10-30T10:50:41;97009.41;;;29.25;37.49
20971;BME280;10644;48.834;10.088;2022-10-30T10:53:42;97008.16;;;29.49;37.15
20971;BME280;10644;48.834;10.088;2022-10-30T10:56:28;97001.00;;;29.64;33.49
20971;BME280;10644;48.834;10.088;2022-10-30T10:59:02;97002.28;;;29.74;31.22
20971;BME280;10644;48.834;10.088;2022-10-30T11:04:41;97004.13;;;30.08;30.95
20971;BME280;10644;48.834;10.088;2022-10-30T11:10:23;96990.69;;;30.50;30.57
20971;BME280;10644;48.834;10.088;2022-10-30T11:12:56;96991.41;;;30.71;29.53
20971;BME280;10644;48.834;10.088;2022-10-30T11:15:54;96986.53;;;30.75;29.26
20971;BME280;10644;48.834;10.088;2022-10-30T11:18:39;96987.72;;;30.66;28.67
20971;BME280;10644;48.834;10.088;2022-10-30T11:21:21;96990.22;;;30.93;28.97
20971;BME280;10644;48.834;10.088;2022-10-30T11:24:29;96989.63;;;31.11;29.50
20971;BME280;10644;48.834;10.088;2022-10-30T11:26:58;96985.81;;;31.20;26.51
20971;BME280;10644;48.834;10.088;2022-10-30T11:29:28;96989.66;;;31.24;27.06
20971;BME280;10644;48.834;10.088;2022-10-30T11:32:03;96978.25;;;31.36;26.47
20971;BME280;10644;48.834;10.088;2022-10-30T11:34:44;96979.06;;;31.50;26.82
20971;BME280;10644;48.834;10.088;2022-10-30T11:37:30;96977.84;;;31.59;26.67
20971;BME280;10644;48.834;10.088;2022-10-30T11:40:21;96979.69;;;31.78;25.80
20971;BME280;10644;48.834;10.088;2022-10-30T11:43:07;96980.66;;;31.96;26.19
20971;BME280;10644;48.834;10.088;2022-10-30T11:45:42;96966.75;;;32.01;24.50
20971;BME280;10644;48.834;10.088;2022-10-30T11:48:32;96982.28;;;32.04;24.68
20971;BME280;10644;48.834;10.088;2022-10-30T11:51:01;96979.03;;;31.95;23.52
20971;BME280;10644;48.834;10.088;2022-10-30T11:53:39;96965.59;;;31.71;23.08
20971;BME280;10644;48.834;10.088;2022-10-30T11:56:22;96969.66;;;31.93;24.23
20971;BME280;10644;48.834;10.088;2022-10-30T12:02:21;96962.81;;;32.23;24.85
20971;BME280;10644;48.834;10.088;2022-10-30T12:05:31;96969.16;;;32.09;22.49
20971;BME280;10644;48.834;10.088;2022-10-30T12:07:48;96969.88;;;31.85;22.84
20971;BME280;10644;48.834;10.088;2022-10-30T12:13:17;96970.81;;;32.10;23.04
20971;BME280;10644;48.834;10.088;2022-10-30T12:15:44;96960.97;;;32.30;22.86
20971;BME280;10644;48.834;10.088;2022-10-30T12:18:18;96959.72;;;32.39;23.33
20971;BME280;10644;48.834;10.088;2022-10-30T12:20:52;96956.75;;;32.60;23.06
20971;BME280;10644;48.834;10.088;2022-10-30T12:23:23;96956.19;;;32.89;22.76
20971;BME280;10644;48.834;10.088;2022-10-30T12:26:11;96951.13;;;33.12;24.09
20971;BME280;10644;48.834;10.088;2022-10-30T12:28:47;96949.97;;;33.26;23.05
20971;BME280;10644;48.834;10.088;2022-10-30T12:31:29;96948.94;;;33.27;23.06
20971;BME280;10644;48.834;10.088;2022-10-30T12:37:42;96948.25;;;33.38;23.12
20971;BME280;10644;48.834;10.088;2022-10-30T12:40:18;96940.66;;;32.86;23.55
20971;BME280;10644;48.834;10.088;2022-10-30T12:45:39;96950.09;;;32.82;23.77
20971;BME280;10644;48.834;10.088;2022-10-30T12:56:32;96947.47;;;32.75;23.49
20971;BME280;10644;48.834;10.088;2022-10-30T13:05:47;96936.41;;;32.47;22.71
20971;BME280;10644;48.834;10.088;2022-10-30T13:08:38;96936.81;;;32.44;22.67
20971;BME280;10644;48.834;10.088;2022-10-30T13:14:39;96931.94;;;32.79;23.17
20971;BME280;10644;48.834;10.088;2022-10-30T13:17:33;96933.91;;;32.52;22.48
20971;BME280;10644;48.834;10.088;2022-10-30T13:20:17;96932.84;;;32.16;22.99
20971;BME280;10644;48.834;10.088;2022-10-30T13:22:59;96933.31;;;32.00;23.21
20971;BME280;10644;48.834;10.088;2022-10-30T13:44:00;96925.47;;;31.48;24.18
20971;BME280;10644;48.834;10.088;2022-10-30T13:52:34;96939.53;;;31.42;24.82
20971;BME280;10644;48.834;10.088;2022-10-30T13:55:24;96932.16;;;31.57;24.52
20971;BME280;10644;48.834;10.088;2022-10-30T14:07:21;96940.53;;;31.41;24.92
20971;BME280;10644;48.834;10.088;2022-10-30T14:15:44;96932.78;;;31.52;24.21
20971;BME280;10644;48.834;10.088;2022-10-30T14:20:45;96932.56;;;31.67;23.95
20971;BME280;10644;48.834;10.088;2022-10-30T14:31:44;96938.47;;;30.78;25.57
20971;BME280;10644;48.834;10.088;2022-10-30T14:34:39;96936.88;;;30.83;25.84
20971;BME280;10644;48.834;10.088;2022-10-30T14:37:14;96945.41;;;30.85;25.81
20971;BME280;10644;48.834;10.088;2022-10-30T14:39:44;96934.63;;;30.87;25.53
20971;BME280;10644;48.834;10.088;2022-10-30T14:45:28;96947.78;;;30.61;25.66
20971;BME280;10644;48.834;10.088;2022-10-30T14:51:09;96936.91;;;30.36;26.74
20971;BME280;10644;48.834;10.088;2022-10-30T14:56:49;96949.34;;;30.36;27.11
20971;BME280;10644;48.834;10.088;2022-10-30T14:59:34;96949.34;;;30.36;27.70
20971;BME280;10644;48.834;10.088;2022-10-30T15:02:38;96949.91;;;30.25;28.04
20971;BME280;10644;48.834;10.088;2022-10-30T15:14:26;96951.38;;;28.69;30.41
20971;BME280;10644;48.834;10.088;2022-10-30T15:16:54;96950.00;;;28.73;31.05
20971;BME280;10644;48.834;10.088;2022-10-30T15:19:32;96950.56;;;28.89;30.97
20971;BME280;10644;48.834;10.088;2022-10-30T15:22:01;96955.03;;;28.89;31.90
20971;BME280;10644;48.834;10.088;2022-10-30T15:24:28;96948.50;;;28.85;32.20
20971;BME280;10644;48.834;10.088;2022-10-30T15:27:01;96957.91;;;28.52;31.90
20971;BME280;10644;48.834;10.088;2022-10-30T15:29:35;96951.66;;;28.38;31.65
20971;BME280;10644;48.834;10.088;2022-10-30T15:32:19;96960.19;;;28.40;31.87
20971;BME280;10644;48.834;10.088;2022-10-30T15:35:01;96959.28;;;28.33;32.10
20971;BME280;10644;48.834;10.088;2022-10-30T15:40:57;96960.75;;;28.21;32.09
20971;BME280;10644;48.834;10.088;2022-10-30T15:43:47;96963.59;;;28.05;32.01
20971;BME280;10644;48.834;10.088;2022-10-30T15:46:13;96968.16;;;27.82;32.51
20971;BME280;10644;48.834;10.088;2022-10-30T15:51:47;96974.28;;;27.46;33.07
20971;BME280;10644;48.834;10.088;2022-10-30T15:54:39;96969.91;;;27.38;33.02
20971;BME280;10644;48.834;10.088;2022-10-30T16:05:33;96989.31;;;27.00;34.58
20971;BME280;10644;48.834;10.088;2022-10-30T16:08:01;96984.91;;;26.93;34.67
20971;BME280;10644;48.834;10.088;2022-10-30T16:10:43;96980.38;;;26.87;34.50
20971;BME280;10644;48.834;10.088;2022-10-30T16:16:46;96991.28;;;26.45;35.06
20971;BME280;10644;48.834;10.088;2022-10-30T16:19:27;96984.50;;;26.20;36.04
20971;BME280;10644;48.834;10.088;2022-10-30T16:21:56;96987.84;;;26.06;36.82
20971;BME280;10644;48.834;10.088;2022-10-30T16:24:43;96987.75;;;25.92;37.19
20971;BME280;10644;48.834;10.088;2022-10-30T16:27:16;96989.13;;;25.56;38.19
20971;BME280;10644;48.834;10.088;2022-10-30T16:29:51;96988.13;;;25.65;37.38
20971;BME280;10644;48.834;10.088;2022-10-30T16:32:38;96982.19;;;25.71;36.89
20971;BME280;10644;48.834;10.088;2022-10-30T16:35:13;96990.59;;;25.66;36.85
20971;BME280;10644;48.834;10.088;2022-10-30T16:38:10;96990.09;;;25.63;36.63
20971;BME280;10644;48.834;10.088;2022-10-30T16:40:43;96983.88;;;25.56;37.19
20971;BME280;10644;48.834;10.088;2022-10-30T16:43:22;96997.97;;;25.55;37.38
20971;BME280;10644;48.834;10.088;2022-10-30T16:48:57;96992.13;;;25.37;37.36
20971;BME280;10644;48.834;10.088;2022-10-30T16:51:23;96994.09;;;25.27;37.88
20971;BME280;10644;48.834;10.088;2022-10-30T16:53:58;96999.16;;;25.20;37.27
20971;BME280;10644;48.834;10.088;2022-10-30T16:56:42;97000.97;;;25.12;37.11
20971;BME280;10644;48.834;10.088;2022-10-30T17:02:38;96999.94;;;24.89;37.84
20971;BME280;10644;48.834;10.088;2022-10-30T17:05:29;97000.59;;;24.83;37.94
20971;BME280;10644;48.834;10.088;2022-10-30T17:08:32;97012.06;;;24.74;38.30
20971;BME280;10644;48.834;10.088;2022-10-30T17:11:01;97007.63;;;24.66;39.63
20971;BME280;10644;48.834;10.088;2022-10-30T17:13:35;97014.16;;;24.62;38.90